LIMW/AOT METAR and TAF weather

Enter ICAO airport designator
Station Type Date Time Source
LIMW METAR 2023/02/03 16:50 UTC NOAA

LIMW 031650Z AUTO 31010KT 280V340 9999 NCD 16/M12 Q1025


Station Type Date Time Source
LIMW Decoded METAR 2023/02/03 16:50 UTC NOAA

Station name not available
Feb 03, 2023 - 11:50 AM EST / 2023.02.03 1650 UTC
Wind: from the NW (310 degrees) at 12 MPH (10 KT) (direction variable):0
Visibility: greater than 7 mile(s):0
Temperature: 60 F (16 C)
Dew Point: 10 F (-12 C)
Relative Humidity: 13%
Pressure (altimeter): 30.27 in. Hg (1025 hPa)
ob: LIMW 031650Z AUTO 31010KT 280V340 9999 NCD 16/M12 Q1025
cycle: 17

Station Type Date Time Source
LIMW TAF UTC NOAA

Error!

Example: see airport list